createdAt,value
2023-04-21T00:01:53.379Z,11.42
2023-04-21T00:04:21.766Z,11.34
2023-04-21T00:06:50.789Z,11.41
2023-04-21T00:09:19.454Z,11.39
2023-04-21T00:11:47.923Z,11.38
2023-04-21T00:14:16.095Z,11.35
2023-04-21T00:16:44.290Z,11.31
2023-04-21T00:19:14.324Z,11.31
2023-04-21T00:21:42.685Z,11.30
2023-04-21T00:24:11.023Z,11.20
2023-04-21T00:26:39.161Z,11.25
2023-04-21T00:29:07.320Z,11.23
2023-04-21T00:31:36.377Z,11.20
2023-04-21T00:34:06.406Z,11.17
2023-04-21T00:36:34.544Z,11.16
2023-04-21T00:39:02.747Z,11.15
2023-04-21T00:41:31.385Z,11.14
2023-04-21T00:44:04.806Z,11.13
2023-04-21T00:46:33.625Z,11.12
2023-04-21T00:49:05.512Z,11.09
2023-04-21T00:51:36.070Z,11.05
2023-04-21T00:54:05.831Z,10.95
2023-04-21T00:56:36.821Z,11.00
2023-04-21T00:59:05.113Z,10.95
2023-04-21T01:01:34.505Z,10.92
2023-04-21T01:04:05.349Z,10.89
2023-04-21T01:06:36.711Z,10.86
2023-04-21T01:09:05.293Z,10.83
2023-04-21T01:11:33.878Z,10.80
2023-04-21T01:14:02.178Z,10.78
2023-04-21T01:16:30.301Z,10.75
2023-04-21T01:18:59.281Z,10.74
2023-04-21T01:21:29.123Z,10.72
2023-04-21T01:23:57.716Z,10.71
2023-04-21T01:26:26.079Z,10.70
2023-04-21T01:28:57.477Z,10.70
2023-04-21T01:31:27.418Z,10.67
2023-04-21T01:33:55.724Z,10.66
2023-04-21T01:36:24.151Z,10.66
2023-04-21T01:38:53.800Z,10.65
2023-04-21T01:41:23.986Z,10.63
2023-04-21T01:43:52.104Z,10.63
2023-04-21T01:46:21.285Z,10.60
2023-04-21T01:48:49.611Z,10.57
2023-04-21T01:51:17.776Z,10.53
2023-04-21T01:53:45.908Z,10.51
2023-04-21T01:56:15.570Z,10.48
2023-04-21T01:58:43.750Z,10.46
2023-04-21T02:01:11.961Z,10.43
2023-04-21T02:03:40.802Z,10.42
2023-04-21T02:06:09.696Z,10.42
2023-04-21T02:08:37.797Z,10.41
2023-04-21T02:11:05.973Z,10.40
2023-04-21T02:13:34.098Z,10.39
2023-04-21T02:16:12.687Z,10.38
2023-04-21T02:18:42.532Z,10.37
2023-04-21T02:21:10.777Z,10.36
2023-04-21T02:23:38.977Z,10.34
2023-04-21T02:26:07.364Z,10.31
2023-04-21T02:28:35.552Z,10.32
2023-04-21T02:31:03.844Z,10.29
2023-04-21T02:33:35.252Z,10.24
2023-04-21T02:36:04.109Z,10.13
2023-04-21T02:38:32.240Z,10.15
2023-04-21T02:41:00.452Z,10.04
2023-04-21T02:43:28.533Z,10.02
2023-04-21T02:45:57.261Z,10.06
2023-04-21T02:48:25.626Z,10.02
2023-04-21T02:50:53.912Z,10.00
2023-04-21T02:53:22.522Z,9.98
2023-04-21T02:55:52.458Z,9.94
2023-04-21T02:58:20.531Z,9.93
2023-04-21T03:00:48.818Z,9.89
2023-04-21T03:03:17.126Z,9.88
2023-04-21T03:05:45.669Z,9.84
2023-04-21T03:08:14.290Z,9.76
2023-04-21T03:10:42.468Z,9.68
2023-04-21T03:13:10.699Z,9.61
2023-04-21T03:15:38.901Z,9.56
2023-04-21T03:18:07.099Z,9.57
2023-04-21T03:20:35.326Z,9.56
2023-04-21T03:23:04.182Z,9.58
2023-04-21T03:25:32.265Z,9.58
2023-04-21T03:28:00.414Z,9.55
2023-04-21T03:30:28.534Z,9.45
2023-04-21T03:32:56.933Z,9.34
2023-04-21T03:35:25.100Z,9.29
2023-04-21T03:37:53.229Z,9.25
2023-04-21T03:40:22.003Z,9.27
2023-04-21T03:42:50.319Z,9.24
2023-04-21T03:45:22.748Z,9.24
2023-04-21T03:47:55.939Z,9.22
2023-04-21T03:50:24.139Z,9.19
2023-04-21T03:52:52.405Z,9.15
2023-04-21T03:55:20.644Z,9.11
2023-04-21T03:57:48.923Z,9.03
2023-04-21T04:00:17.184Z,8.89
2023-04-21T04:02:46.817Z,8.91
2023-04-21T04:05:15.147Z,8.90
2023-04-21T04:07:43.327Z,8.88
2023-04-21T04:10:12.091Z,8.84
2023-04-21T04:12:40.247Z,8.85
2023-04-21T04:15:08.684Z,8.89
2023-04-21T04:17:36.838Z,8.94
2023-04-21T04:20:08.491Z,8.96
2023-04-21T04:22:37.177Z,8.96
2023-04-21T04:25:05.761Z,9.05
2023-04-21T04:27:34.440Z,9.11
2023-04-21T04:30:03.784Z,9.15
2023-04-21T04:32:33.657Z,9.19
2023-04-21T04:35:02.654Z,9.20
2023-04-21T04:37:31.897Z,9.23
2023-04-21T04:40:00.555Z,9.28
2023-04-21T04:42:29.113Z,9.25
2023-04-21T04:44:57.540Z,9.32
2023-04-21T04:47:25.885Z,9.32
2023-04-21T04:49:54.556Z,9.28
2023-04-21T04:52:23.097Z,9.28
2023-04-21T04:54:51.424Z,9.28
2023-04-21T04:57:19.558Z,9.34
2023-04-21T04:59:47.735Z,9.39
2023-04-21T05:02:16.054Z,9.47
2023-04-21T05:04:44.437Z,9.55
2023-04-21T05:07:12.588Z,9.62
2023-04-21T05:09:40.660Z,9.70
2023-04-21T05:12:08.831Z,9.81
2023-04-21T05:14:36.906Z,9.90
2023-04-21T05:17:05.403Z,9.99
2023-04-21T05:19:37.537Z,10.08
2023-04-21T05:22:08.299Z,10.15
2023-04-21T05:24:37.846Z,10.24
2023-04-21T05:27:05.997Z,10.37
2023-04-21T05:29:34.626Z,10.50
2023-04-21T05:32:07.187Z,10.62
2023-04-21T05:34:35.552Z,10.71
2023-04-21T05:37:04.348Z,10.79
2023-04-21T05:39:32.519Z,10.86
2023-04-21T05:42:00.746Z,10.94
2023-04-21T05:44:28.856Z,10.99
2023-04-21T05:46:56.941Z,11.04
2023-04-21T05:49:25.449Z,11.10
2023-04-21T05:51:53.604Z,11.14
2023-04-21T05:54:22.045Z,11.18
2023-04-21T05:56:50.348Z,11.22
2023-04-21T05:59:18.454Z,11.25
2023-04-21T06:01:46.698Z,11.27
2023-04-21T06:04:14.874Z,11.23
2023-04-21T06:06:44.458Z,11.35
2023-04-21T06:09:15.717Z,11.43
2023-04-21T06:11:43.826Z,11.49
2023-04-21T06:14:11.960Z,11.55
2023-04-21T06:16:40.175Z,11.61
2023-04-21T06:19:08.291Z,11.68
2023-04-21T06:21:36.378Z,11.70
2023-04-21T06:24:04.723Z,11.71
2023-04-21T06:26:32.880Z,11.74
2023-04-21T06:29:01.110Z,11.80
2023-04-21T06:31:29.242Z,11.88
2023-04-21T06:33:57.331Z,11.95
2023-04-21T06:36:25.465Z,11.98
2023-04-21T06:38:53.787Z,11.97
2023-04-21T06:41:24.245Z,12.02
2023-04-21T06:43:53.089Z,12.10
2023-04-21T06:46:21.260Z,12.16
2023-04-21T06:48:49.471Z,12.21
2023-04-21T06:51:17.700Z,12.29
2023-04-21T06:53:45.932Z,12.34
2023-04-21T06:56:14.140Z,12.40
2023-04-21T06:58:42.244Z,12.47
2023-04-21T07:01:10.406Z,12.54
2023-04-21T07:03:38.660Z,12.59
2023-04-21T07:06:07.273Z,12.68
2023-04-21T07:08:35.717Z,12.76
2023-04-21T07:11:04.015Z,12.86
2023-04-21T07:13:32.124Z,12.89
2023-04-21T07:16:00.389Z,12.99
2023-04-21T07:18:28.721Z,13.09
2023-04-21T07:20:56.817Z,13.17
2023-04-21T07:23:24.915Z,13.22
2023-04-21T07:25:53.401Z,13.30
2023-04-21T07:28:21.663Z,13.38
2023-04-21T07:30:49.970Z,13.50
2023-04-21T07:33:18.482Z,13.57
2023-04-21T07:35:46.687Z,13.61
2023-04-21T07:38:14.991Z,13.69
2023-04-21T07:40:43.186Z,13.80
2023-04-21T07:43:11.379Z,13.91
2023-04-21T07:45:39.627Z,13.97
2023-04-21T07:48:07.969Z,14.06
2023-04-21T07:50:36.586Z,14.12
2023-04-21T07:53:05.477Z,14.17
2023-04-21T07:55:34.406Z,14.18
2023-04-21T07:58:02.520Z,14.16
2023-04-21T08:00:30.773Z,14.12
2023-04-21T08:02:59.314Z,14.11
2023-04-21T08:05:31.428Z,14.11
2023-04-21T08:08:02.053Z,14.12
2023-04-21T08:10:30.285Z,14.13
2023-04-21T08:12:58.411Z,14.21
2023-04-21T08:15:26.563Z,14.33
2023-04-21T08:17:55.186Z,14.43
2023-04-21T08:20:23.565Z,14.56
2023-04-21T08:22:51.767Z,14.63
2023-04-21T08:25:20.155Z,14.68
2023-04-21T08:27:48.431Z,14.79
2023-04-21T08:30:16.710Z,14.90
2023-04-21T08:32:44.972Z,14.86
2023-04-21T08:35:13.306Z,14.93
2023-04-21T08:37:41.866Z,14.99
2023-04-21T08:40:10.344Z,14.95
2023-04-21T08:42:39.213Z,14.98
2023-04-21T08:45:08.071Z,15.01
2023-04-21T08:47:38.793Z,15.13
2023-04-21T08:50:12.690Z,15.08
2023-04-21T08:52:40.876Z,15.11
2023-04-21T08:55:10.241Z,15.38
2023-04-21T08:57:38.630Z,15.57
2023-04-21T09:00:08.379Z,15.65
2023-04-21T09:03:00.949Z,15.83
2023-04-21T09:05:32.721Z,16.08
2023-04-21T09:08:12.465Z,16.24
2023-04-21T09:10:49.627Z,16.19
2023-04-21T09:13:19.450Z,16.32
2023-04-21T09:15:54.446Z,16.49
2023-04-21T09:18:28.086Z,16.74
2023-04-21T09:21:10.994Z,16.93
2023-04-21T09:23:46.857Z,17.05
2023-04-21T09:26:16.570Z,17.30
2023-04-21T09:28:46.548Z,17.77
2023-04-21T09:31:25.049Z,18.27
2023-04-21T09:33:59.263Z,18.69
2023-04-21T09:36:32.066Z,19.08
2023-04-21T09:39:30.175Z,19.45
2023-04-21T09:41:51.455Z,19.90
2023-04-21T09:44:21.350Z,20.50
2023-04-21T09:46:51.348Z,21.01
2023-04-21T09:49:23.477Z,21.48
2023-04-21T09:54:34.157Z,22.53
2023-04-21T09:57:04.716Z,22.47
2023-04-21T09:59:36.658Z,22.53
2023-04-21T10:02:06.383Z,22.55
2023-04-21T10:04:37.319Z,22.77
2023-04-21T10:07:06.653Z,22.99
2023-04-21T10:09:47.791Z,23.25
2023-04-21T10:12:17.438Z,23.66
2023-04-21T10:14:45.652Z,23.78
2023-04-21T10:17:17.719Z,23.31
2023-04-21T10:19:59.779Z,22.92
2023-04-21T10:22:35.412Z,23.00
2023-04-21T10:25:06.465Z,23.08
2023-04-21T10:27:41.855Z,23.23
2023-04-21T10:30:23.880Z,23.58
2023-04-21T10:33:05.949Z,23.95
2023-04-21T10:36:03.262Z,24.13
2023-04-21T10:38:35.977Z,23.39
2023-04-21T10:41:27.489Z,23.07
2023-04-21T10:44:02.560Z,22.73
2023-04-21T10:46:39.529Z,22.28
2023-04-21T10:49:12.933Z,21.86
2023-04-21T10:51:59.176Z,21.45
2023-04-21T10:54:42.174Z,21.29
2023-04-21T10:57:12.559Z,21.30
2023-04-21T10:59:41.159Z,21.29
2023-04-21T11:02:17.304Z,21.47
2023-04-21T11:04:51.698Z,21.47
2023-04-21T11:07:23.211Z,21.53
2023-04-21T11:10:00.477Z,21.36
2023-04-21T11:12:34.285Z,21.27
2023-04-21T11:15:20.764Z,21.40
2023-04-21T11:17:50.081Z,21.55
2023-04-21T11:20:18.253Z,21.74
2023-04-21T11:22:46.457Z,21.78
2023-04-21T11:25:18.626Z,21.95
2023-04-21T11:27:57.217Z,21.79
2023-04-21T11:30:35.613Z,21.91
2023-04-21T11:33:03.873Z,22.16
2023-04-21T11:35:32.434Z,22.46
2023-04-21T11:38:05.610Z,22.60
2023-04-21T11:40:47.879Z,22.65
2023-04-21T11:43:16.098Z,22.87
2023-04-21T11:45:48.482Z,23.00
2023-04-21T11:48:17.426Z,23.10
2023-04-21T11:50:50.626Z,23.09
2023-04-21T11:53:19.898Z,23.27
2023-04-21T11:55:48.268Z,23.51
2023-04-21T11:58:18.028Z,23.61
2023-04-21T12:00:46.630Z,23.89
2023-04-21T12:03:15.056Z,23.92
2023-04-21T12:05:43.488Z,23.81
2023-04-21T12:08:16.460Z,23.72
2023-04-21T12:10:46.818Z,23.56
2023-04-21T12:13:23.637Z,23.49
2023-04-21T12:15:51.873Z,23.80
2023-04-21T12:18:20.154Z,24.09
2023-04-21T12:20:52.711Z,24.16
2023-04-21T12:23:21.056Z,24.34
2023-04-21T12:25:50.297Z,24.60
2023-04-21T12:28:18.461Z,24.64
2023-04-21T12:30:46.854Z,24.43
2023-04-21T12:33:15.219Z,24.13
2023-04-21T12:35:43.578Z,23.99
2023-04-21T12:38:11.737Z,23.78
2023-04-21T12:40:39.921Z,23.75
2023-04-21T12:43:08.092Z,23.55
2023-04-21T12:45:36.819Z,23.51
2023-04-21T12:48:05.466Z,23.40
2023-04-21T12:50:33.715Z,23.39
2023-04-21T12:53:01.816Z,23.41
2023-04-21T12:55:30.014Z,23.59
2023-04-21T12:57:58.415Z,23.85
2023-04-21T13:00:26.559Z,24.06
2023-04-21T13:02:54.787Z,23.87
2023-04-21T13:05:23.610Z,23.50
2023-04-21T13:07:51.798Z,23.22
2023-04-21T13:10:19.950Z,23.01
2023-04-21T13:12:48.140Z,23.13
2023-04-21T13:15:16.395Z,23.31
2023-04-21T13:17:44.514Z,23.10
2023-04-21T13:20:12.834Z,22.96
2023-04-21T13:22:41.020Z,22.76
2023-04-21T13:25:09.532Z,22.65
2023-04-21T13:27:40.094Z,22.75
2023-04-21T13:30:11.269Z,22.71
2023-04-21T13:32:41.092Z,22.82
2023-04-21T13:35:10.778Z,22.93
2023-04-21T13:37:39.961Z,22.87
2023-04-21T13:40:10.791Z,22.84
2023-04-21T13:42:39.652Z,22.71
2023-04-21T13:45:08.370Z,22.37
2023-04-21T13:47:36.710Z,22.19
2023-04-21T13:50:05.710Z,22.12
2023-04-21T13:52:36.506Z,21.97
2023-04-21T13:55:05.426Z,21.78
2023-04-21T13:57:33.898Z,21.65
2023-04-21T14:00:02.340Z,21.79
2023-04-21T14:02:33.094Z,21.90
2023-04-21T14:05:01.720Z,22.00
2023-04-21T14:07:31.096Z,22.03
2023-04-21T14:09:59.351Z,22.00
2023-04-21T14:12:27.693Z,22.00
2023-04-21T14:14:55.883Z,22.15
2023-04-21T14:17:24.151Z,22.43
2023-04-21T14:19:55.102Z,23.01
2023-04-21T14:22:23.756Z,23.30
2023-04-21T14:24:51.889Z,23.33
2023-04-21T14:27:20.374Z,23.01
2023-04-21T14:29:48.641Z,22.57
2023-04-21T14:32:17.110Z,22.10
2023-04-21T14:34:45.390Z,21.89
2023-04-21T14:37:13.530Z,21.75
2023-04-21T14:39:41.834Z,21.63
2023-04-21T14:42:10.039Z,21.52
2023-04-21T14:44:38.205Z,21.29
2023-04-21T14:47:10.351Z,21.11
2023-04-21T14:49:39.298Z,21.11
2023-04-21T14:52:07.681Z,20.90
2023-04-21T14:54:35.939Z,20.75
2023-04-21T14:57:18.742Z,20.75
2023-04-21T14:59:52.373Z,20.77
2023-04-21T15:02:21.809Z,20.75
2023-04-21T15:04:50.695Z,20.60
2023-04-21T15:07:23.984Z,20.39
2023-04-21T15:09:53.803Z,20.13
2023-04-21T15:12:22.044Z,20.13
2023-04-21T15:14:50.176Z,20.02
2023-04-21T15:17:18.507Z,19.86
2023-04-21T15:19:46.634Z,19.89
2023-04-21T15:22:15.425Z,19.86
2023-04-21T15:24:43.733Z,19.80
2023-04-21T15:27:11.892Z,19.61
2023-04-21T15:29:40.448Z,19.55
2023-04-21T15:32:09.083Z,19.69
2023-04-21T15:34:37.215Z,19.72
2023-04-21T15:37:05.463Z,19.55
2023-04-21T15:39:33.778Z,19.40
2023-04-21T15:42:04.449Z,19.29
2023-04-21T15:44:34.219Z,19.15
2023-04-21T15:47:03.088Z,19.05
2023-04-21T15:49:31.576Z,19.02
2023-04-21T15:52:00.013Z,18.97
2023-04-21T15:54:28.253Z,19.01
2023-04-21T15:56:57.714Z,19.05
2023-04-21T15:59:26.439Z,18.96
2023-04-21T16:01:56.992Z,18.82
2023-04-21T16:04:25.649Z,18.72
2023-04-21T16:06:54.043Z,18.66
2023-04-21T16:09:22.661Z,18.58
2023-04-21T16:11:51.476Z,18.43
2023-04-21T16:14:19.861Z,18.22
2023-04-21T16:16:48.161Z,17.95
2023-04-21T16:19:16.657Z,17.74
2023-04-21T16:21:45.251Z,17.54
2023-04-21T16:24:13.499Z,17.20
2023-04-21T16:26:41.780Z,17.11
2023-04-21T16:29:09.929Z,16.81
2023-04-21T16:31:38.316Z,16.48
2023-04-21T16:34:06.578Z,16.14
2023-04-21T16:36:34.868Z,15.89
2023-04-21T16:39:03.291Z,15.66
2023-04-21T16:41:31.412Z,15.42
2023-04-21T16:43:59.484Z,15.12
2023-04-21T16:46:28.422Z,15.01
2023-04-21T16:48:56.685Z,14.85
2023-04-21T16:51:26.213Z,14.69
2023-04-21T16:53:56.796Z,14.59
2023-04-21T16:56:25.759Z,14.50
2023-04-21T16:58:54.055Z,14.34
2023-04-21T17:01:22.272Z,14.36
2023-04-21T17:03:51.055Z,14.27
2023-04-21T17:06:21.277Z,14.17
2023-04-21T17:08:49.998Z,14.09
2023-04-21T17:11:19.933Z,14.02
2023-04-21T17:13:48.006Z,13.97
2023-04-21T17:16:16.151Z,13.89
2023-04-21T17:18:44.441Z,13.82
2023-04-21T17:21:12.813Z,13.74
2023-04-21T17:23:41.351Z,13.66
2023-04-21T17:26:11.624Z,13.58
2023-04-21T17:28:41.502Z,13.51
2023-04-21T17:31:15.749Z,13.44
2023-04-21T17:33:45.670Z,13.34
2023-04-21T17:36:14.054Z,13.25
2023-04-21T17:38:43.186Z,13.15
2023-04-21T17:41:11.689Z,13.07
2023-04-21T17:43:40.164Z,13.03
2023-04-21T17:46:08.512Z,12.96
2023-04-21T17:48:37.501Z,12.87
2023-04-21T17:51:05.840Z,12.80
2023-04-21T17:53:33.967Z,12.72
2023-04-21T17:56:02.246Z,12.63
2023-04-21T17:58:30.562Z,12.57
2023-04-21T18:00:58.632Z,12.49
2023-04-21T18:03:27.433Z,12.47
2023-04-21T18:05:56.144Z,12.36
2023-04-21T18:08:24.897Z,12.39
2023-04-21T18:10:55.242Z,12.35
2023-04-21T18:13:23.588Z,12.32
2023-04-21T18:15:51.909Z,12.27
2023-04-21T18:18:20.248Z,12.12
2023-04-21T18:20:48.548Z,12.13
2023-04-21T18:23:16.718Z,12.02
2023-04-21T18:25:44.877Z,11.92
2023-04-21T18:28:13.254Z,11.80
2023-04-21T18:30:42.320Z,11.69
2023-04-21T18:33:11.786Z,11.60
2023-04-21T18:35:42.133Z,11.53
2023-04-21T18:38:12.003Z,11.48
2023-04-21T18:40:41.477Z,11.43
2023-04-21T18:43:10.999Z,11.35
2023-04-21T18:45:39.186Z,11.26
2023-04-21T18:48:07.894Z,11.12
2023-04-21T18:50:40.363Z,11.15
2023-04-21T18:53:09.236Z,11.11
2023-04-21T18:55:37.849Z,11.09
2023-04-21T18:58:06.484Z,11.04
2023-04-21T19:00:37.745Z,10.98
2023-04-21T19:03:07.073Z,10.91
2023-04-21T19:05:36.746Z,10.76
2023-04-21T19:08:05.465Z,10.78
2023-04-21T19:10:35.037Z,10.69
2023-04-21T19:13:03.371Z,10.69
2023-04-21T19:15:31.659Z,10.64
2023-04-21T19:17:59.945Z,10.59
2023-04-21T19:20:29.312Z,10.53
2023-04-21T19:22:57.413Z,10.50
2023-04-21T19:25:26.546Z,10.48
2023-04-21T19:27:54.778Z,10.47
2023-04-21T19:30:23.086Z,10.47
2023-04-21T19:32:51.306Z,10.41
2023-04-21T19:35:19.558Z,10.37
2023-04-21T19:37:47.702Z,10.34
2023-04-21T19:40:15.857Z,10.23
2023-04-21T19:42:43.938Z,10.27
2023-04-21T19:45:12.376Z,10.21
2023-04-21T19:47:40.624Z,10.15
2023-04-21T19:50:09.500Z,10.09
2023-04-21T19:52:37.597Z,10.00
2023-04-21T19:55:05.949Z,9.91
2023-04-21T19:57:34.626Z,9.82
2023-04-21T20:00:03.071Z,9.74
2023-04-21T20:02:40.763Z,9.67
2023-04-21T20:05:10.561Z,9.61
2023-04-21T20:07:39.805Z,9.56
2023-04-21T20:10:09.051Z,9.51
2023-04-21T20:12:37.133Z,9.54
2023-04-21T20:15:05.973Z,9.51
2023-04-21T20:17:34.401Z,9.46
2023-04-21T20:20:05.361Z,9.37
2023-04-21T20:22:33.476Z,9.42
2023-04-21T20:25:01.670Z,9.35
2023-04-21T20:27:30.123Z,9.33
2023-04-21T20:29:58.402Z,9.31
2023-04-21T20:32:26.552Z,9.29
2023-04-21T20:34:54.713Z,9.15
2023-04-21T20:37:23.395Z,9.18
2023-04-21T20:39:52.001Z,9.21
2023-04-21T20:42:21.931Z,9.19
2023-04-21T20:44:50.230Z,9.17
2023-04-21T20:47:18.446Z,9.14
2023-04-21T20:49:47.550Z,9.11
2023-04-21T20:52:16.138Z,9.05
2023-04-21T20:54:44.449Z,9.12
2023-04-21T20:57:12.727Z,9.09
2023-04-21T20:59:41.321Z,9.06
2023-04-21T21:02:09.931Z,9.05
2023-04-21T21:04:38.307Z,9.04
2023-04-21T21:07:06.611Z,9.02
2023-04-21T21:09:34.987Z,8.98
2023-04-21T21:12:03.252Z,8.91
2023-04-21T21:14:31.733Z,8.85
2023-04-21T21:17:01.581Z,8.77
2023-04-21T21:19:30.016Z,8.71
2023-04-21T21:21:58.300Z,8.66
2023-04-21T21:24:26.688Z,8.63
2023-04-21T21:26:55.058Z,8.61
2023-04-21T21:29:23.252Z,8.56
2023-04-21T21:31:51.424Z,8.53
2023-04-21T21:34:19.633Z,8.53
2023-04-21T21:36:47.878Z,8.52
2023-04-21T21:39:16.196Z,8.50
2023-04-21T21:41:44.302Z,8.46
2023-04-21T21:44:12.510Z,8.42
2023-04-21T21:46:40.769Z,8.37
2023-04-21T21:49:08.983Z,8.34
2023-04-21T21:51:37.210Z,8.34
2023-04-21T21:54:06.697Z,8.32
2023-04-21T21:56:35.196Z,8.27
2023-04-21T21:59:03.675Z,8.22
2023-04-21T22:01:32.073Z,8.09
2023-04-21T22:04:00.307Z,8.14
2023-04-21T22:06:29.097Z,8.10
2023-04-21T22:08:57.167Z,8.06
2023-04-21T22:11:25.501Z,8.01
2023-04-21T22:13:53.668Z,7.97
2023-04-21T22:16:22.542Z,7.94
2023-04-21T22:18:51.001Z,7.91
2023-04-21T22:21:20.644Z,7.91
2023-04-21T22:23:48.794Z,7.90
2023-04-21T22:26:16.959Z,7.90
2023-04-21T22:28:50.054Z,7.89
2023-04-21T22:31:18.431Z,7.88
2023-04-21T22:33:46.631Z,7.78
2023-04-21T22:36:14.873Z,7.85
2023-04-21T22:38:43.810Z,7.85
2023-04-21T22:41:12.942Z,7.84
2023-04-21T22:43:41.322Z,7.83
2023-04-21T22:46:09.442Z,7.81
2023-04-21T22:48:38.364Z,7.77
2023-04-21T22:51:07.373Z,7.75
2023-04-21T22:53:35.679Z,7.72
2023-04-21T22:56:04.544Z,7.66
2023-04-21T22:58:32.712Z,7.62
2023-04-21T23:01:00.975Z,7.55
2023-04-21T23:03:30.501Z,7.48
2023-04-21T23:05:59.232Z,7.45
2023-04-21T23:08:27.350Z,7.41
2023-04-21T23:10:55.522Z,7.37
2023-04-21T23:13:23.649Z,7.24
2023-04-21T23:15:52.071Z,7.24
2023-04-21T23:18:20.286Z,7.19
2023-04-21T23:20:48.437Z,7.14
2023-04-21T23:23:16.637Z,7.10
2023-04-21T23:25:44.803Z,7.05
2023-04-21T23:28:13.105Z,7.02
2023-04-21T23:30:41.312Z,6.97
2023-04-21T23:33:09.540Z,6.92
2023-04-21T23:35:37.714Z,6.87
2023-04-21T23:38:05.871Z,6.81
2023-04-21T23:40:33.984Z,6.76
2023-04-21T23:43:02.141Z,6.72
2023-04-21T23:45:30.494Z,6.69
2023-04-21T23:47:58.648Z,6.64
2023-04-21T23:50:26.887Z,6.59
2023-04-21T23:52:55.188Z,6.55
2023-04-21T23:55:23.397Z,6.48
2023-04-21T23:57:51.607Z,6.46
